Time;durP1;ratioP1;P1;durP2;ratioP2;P2;SDS_P1;SDS_P2;PMS_P1;PMS_P2;Temp;Humidity;BMP_temperature;BMP_pressure;BME280_temperature;BME280_humidity;BME280_pressure;Samples;Min_cycle;Max_cycle;Signal;HPM_P1;HPM_P2
2022/08/18 00:02:28;;;;;;;3.00;2.70;;;22.00;99.90;;;;;;5071261;28;20806;-70
2022/08/18 00:04:54;;;;;;;4.30;3.25;;;22.00;99.90;;;;;;5071069;28;20598;-70
2022/08/18 00:07:23;;;;;;;2.70;2.50;;;22.00;99.90;;;;;;5071994;28;20694;-70
2022/08/18 00:09:49;;;;;;;2.80;2.58;;;22.00;99.90;;;;;;5070666;28;20387;-70
2022/08/18 00:12:32;;;;;;;3.05;2.85;;;21.90;99.90;;;;;;5073828;28;20392;-69
2022/08/18 00:15:04;;;;;;;3.00;2.80;;;22.00;99.90;;;;;;5073845;28;20391;-69
2022/08/18 00:17:31;;;;;;;3.40;3.00;;;22.00;99.90;;;;;;5073691;28;20834;-69
2022/08/18 00:19:57;;;;;;;3.20;2.90;;;22.00;99.90;;;;;;5073296;28;21059;-69
2022/08/18 00:22:22;;;;;;;4.27;3.33;;;22.00;99.90;;;;;;5072912;28;20859;-69
2022/08/18 00:24:51;;;;;;;4.07;3.40;;;22.00;99.90;;;;;;5074746;28;20441;-69
2022/08/18 00:27:20;;;;;;;4.03;3.47;;;22.00;99.90;;;;;;5075292;28;20460;-69
2022/08/18 00:29:46;;;;;;;3.60;3.30;;;21.90;99.90;;;;;;5074479;28;20396;-69
2022/08/18 00:32:21;;;;;;;3.55;3.25;;;21.90;99.90;;;;;;5074778;28;20395;-69
2022/08/18 00:34:47;;;;;;;4.78;3.78;;;21.90;99.90;;;;;;5075130;28;20388;-70
2022/08/18 00:37:12;;;;;;;5.80;3.83;;;21.90;99.90;;;;;;5071341;28;20426;-70
2022/08/18 00:39:38;;;;;;;4.15;3.75;;;21.90;99.90;;;;;;5071153;28;20391;-70
2022/08/18 00:42:12;;;;;;;4.50;4.10;;;21.80;99.90;;;;;;5073942;28;20387;-69
2022/08/18 00:44:38;;;;;;;4.15;3.75;;;21.70;99.90;;;;;;5073249;28;20399;-70
2022/08/18 00:47:04;;;;;;;4.90;4.43;;;21.70;99.90;;;;;;5072033;28;20399;-70
2022/08/18 00:49:29;;;;;;;4.57;4.18;;;21.80;99.90;;;;;;5071282;28;20483;-70
2022/08/18 00:51:56;;;;;;;6.57;4.03;;;21.80;99.90;;;;;;5070612;28;20783;-70
2022/08/18 00:54:29;;;;;;;4.55;4.05;;;21.70;99.90;;;;;;5071832;28;20388;-69
2022/08/18 00:57:00;;;;;;;4.03;3.72;;;21.80;99.90;;;;;;5071358;28;20461;-69
2022/08/18 00:59:35;;;;;;;4.63;4.23;;;21.70;99.90;;;;;;5071149;28;20458;-70
2022/08/18 01:02:04;;;;;;;6.00;4.68;;;21.70;99.90;;;;;;5070615;28;20407;-70
2022/08/18 01:04:49;;;;;;;4.70;4.30;;;21.70;99.90;;;;;;5069929;28;20469;-70
2022/08/18 01:07:20;;;;;;;5.45;4.95;;;21.70;99.90;;;;;;5070266;28;20388;-70
2022/08/18 01:09:50;;;;;;;5.85;5.32;;;21.70;99.90;;;;;;5068168;28;20388;-70
2022/08/18 01:12:16;;;;;;;5.85;5.25;;;21.70;99.90;;;;;;5070630;28;20399;-70
2022/08/18 01:14:42;;;;;;;6.55;5.63;;;21.70;99.90;;;;;;5071782;28;20393;-70
2022/08/18 01:22:46;;;;;;;6.25;5.65;;;21.60;99.90;;;;;;5071791;28;20392;-70
2022/08/18 01:27:57;;;;;;;6.85;6.25;;;21.60;99.90;;;;;;5070358;28;20418;-70
2022/08/18 01:30:24;;;;;;;6.78;6.07;;;21.60;99.90;;;;;;5070108;28;20392;-70
2022/08/18 01:32:52;;;;;;;7.13;6.45;;;21.60;99.90;;;;;;5068676;28;20390;-70
2022/08/18 01:35:20;;;;;;;6.95;6.25;;;21.60;99.90;;;;;;5069060;28;20445;-70
2022/08/18 01:37:45;;;;;;;6.75;6.13;;;21.60;99.90;;;;;;5069507;28;20419;-70
2022/08/18 01:40:13;;;;;;;7.95;6.35;;;21.60;99.90;;;;;;5070493;28;20457;-70
2022/08/18 01:42:42;;;;;;;6.67;6.07;;;21.50;99.90;;;;;;5070459;28;20391;-70
2022/08/18 01:45:08;;;;;;;6.40;5.78;;;21.50;99.90;;;;;;5070418;28;20470;-70
2022/08/18 01:47:35;;;;;;;6.90;6.20;;;21.50;99.90;;;;;;5066462;28;20388;-70
2022/08/18 01:50:01;;;;;;;6.68;6.05;;;21.50;99.90;;;;;;5066014;28;20437;-69
2022/08/18 01:52:28;;;;;;;7.20;6.60;;;21.50;99.90;;;;;;5067289;28;20496;-69
2022/08/18 01:54:56;;;;;;;6.80;6.22;;;21.50;99.90;;;;;;5067724;28;20786;-69
2022/08/18 01:57:24;;;;;;;10.25;6.60;;;21.50;99.90;;;;;;5067041;28;20403;-69
2022/08/18 01:59:50;;;;;;;7.32;6.63;;;21.50;99.90;;;;;;5065633;28;20380;-69
2022/08/18 02:02:23;;;;;;;7.10;6.40;;;21.50;99.90;;;;;;5067400;28;20379;-69
2022/08/18 02:04:55;;;;;;;6.88;6.32;;;21.50;99.90;;;;;;5066904;28;20573;-69
2022/08/18 02:07:20;;;;;;;6.82;6.22;;;21.50;99.90;;;;;;5070012;28;20450;-69
2022/08/18 02:09:46;;;;;;;6.97;6.33;;;21.50;99.90;;;;;;5070638;28;20396;-69
2022/08/18 02:12:13;;;;;;;7.22;6.53;;;21.40;99.90;;;;;;5070970;28;20471;-69
2022/08/18 02:14:39;;;;;;;7.95;6.90;;;21.40;99.90;;;;;;5070803;28;20768;-69
2022/08/18 02:17:07;;;;;;;7.32;6.63;;;21.40;99.90;;;;;;5073538;28;20414;-69
2022/08/18 02:19:42;;;;;;;7.40;6.70;;;21.40;99.90;;;;;;5070385;28;20802;-69
2022/08/18 02:22:10;;;;;;;8.82;7.80;;;21.40;99.90;;;;;;5069669;28;20380;-69
2022/08/18 02:24:37;;;;;;;9.20;8.30;;;21.30;99.90;;;;;;5070209;28;20861;-69
2022/08/18 02:27:03;;;;;;;8.45;7.65;;;21.10;99.90;;;;;;5068608;28;20387;-69
2022/08/18 02:29:29;;;;;;;8.23;7.45;;;21.00;99.90;;;;;;5068685;28;20388;-69
2022/08/18 02:31:54;;;;;;;7.87;7.23;;;21.00;99.90;;;;;;5070347;28;20403;-69
2022/08/18 02:34:20;;;;;;;8.13;7.53;;;21.10;99.90;;;;;;5070552;28;20376;-69
2022/08/18 02:36:45;;;;;;;8.13;7.43;;;21.10;99.90;;;;;;5070092;28;20916;-69
2022/08/18 02:39:11;;;;;;;8.85;8.05;;;21.10;99.90;;;;;;5071389;28;20383;-70
2022/08/18 02:41:36;;;;;;;9.00;8.10;;;21.00;99.90;;;;;;5071102;28;20403;-69
2022/08/18 02:44:04;;;;;;;8.13;7.32;;;21.00;99.90;;;;;;5072390;28;20616;-69
2022/08/18 02:46:30;;;;;;;8.75;8.00;;;21.10;99.90;;;;;;5073672;28;20439;-69
2022/08/18 02:48:56;;;;;;;7.67;6.97;;;21.10;99.90;;;;;;5072547;28;20427;-69
2022/08/18 02:51:21;;;;;;;8.05;7.35;;;21.10;99.90;;;;;;5072940;28;20795;-69
2022/08/18 02:53:47;;;;;;;8.05;7.35;;;21.20;99.90;;;;;;5073501;28;20392;-69
2022/08/18 02:56:20;;;;;;;7.63;7.00;;;21.20;99.90;;;;;;5070924;28;20403;-69
2022/08/18 02:58:47;;;;;;;8.20;7.40;;;21.20;99.90;;;;;;5069787;28;20376;-69
2022/08/18 03:01:12;;;;;;;7.82;7.03;;;21.20;99.90;;;;;;5068310;28;20880;-69
2022/08/18 03:03:38;;;;;;;7.93;7.13;;;21.20;99.90;;;;;;5069711;28;20388;-69
2022/08/18 03:06:04;;;;;;;7.83;7.13;;;21.20;99.90;;;;;;5070782;28;20380;-69
2022/08/18 03:08:31;;;;;;;8.57;7.87;;;21.20;99.90;;;;;;5073779;28;20379;-69
2022/08/18 03:10:56;;;;;;;7.95;7.13;;;21.10;99.90;;;;;;5075271;28;20388;-69
2022/08/18 03:13:22;;;;;;;9.00;8.20;;;21.10;99.90;;;;;;5074860;28;20972;-69
2022/08/18 03:15:47;;;;;;;8.27;7.67;;;21.00;99.90;;;;;;5075107;28;20826;-69
2022/08/18 03:18:13;;;;;;;7.63;6.93;;;21.00;99.90;;;;;;5075565;28;20402;-69
2022/08/18 03:20:40;;;;;;;8.20;7.40;;;21.00;99.90;;;;;;5074121;28;20384;-69
2022/08/18 03:23:05;;;;;;;8.23;7.53;;;21.00;99.90;;;;;;5073641;28;20411;-69
2022/08/18 03:25:31;;;;;;;8.57;7.77;;;21.00;99.90;;;;;;5073713;28;20480;-69
2022/08/18 03:27:57;;;;;;;8.00;7.30;;;21.00;99.90;;;;;;5075091;28;20397;-69
2022/08/18 03:30:22;;;;;;;8.02;7.22;;;21.00;99.90;;;;;;5075055;28;20837;-69
2022/08/18 03:32:49;;;;;;;8.30;7.57;;;21.00;99.90;;;;;;5075372;28;20426;-69
2022/08/18 03:35:15;;;;;;;8.23;7.43;;;21.00;99.90;;;;;;5075949;28;20387;-69
2022/08/18 03:37:41;;;;;;;8.55;7.75;;;21.00;99.90;;;;;;5074369;28;20855;-69
2022/08/18 03:40:09;;;;;;;8.35;7.57;;;21.00;99.90;;;;;;5074123;28;20380;-69
2022/08/18 03:42:36;;;;;;;8.10;7.25;;;21.00;99.90;;;;;;5075221;28;20407;-69
2022/08/18 03:45:03;;;;;;;8.85;8.07;;;21.00;99.90;;;;;;5075868;28;20875;-69
2022/08/18 03:47:28;;;;;;;8.93;7.57;;;20.90;99.90;;;;;;5073925;28;20419;-69
2022/08/18 03:49:54;;;;;;;9.87;8.87;;;20.90;99.90;;;;;;5074633;28;20817;-69
2022/08/18 03:52:19;;;;;;;9.65;8.13;;;20.70;99.90;;;;;;5074116;28;20807;-69
2022/08/18 03:54:45;;;;;;;8.73;8.00;;;20.50;99.90;;;;;;5073316;28;20408;-69
2022/08/18 03:57:11;;;;;;;7.63;6.90;;;20.50;99.90;;;;;;5072925;28;20429;-69
2022/08/18 03:59:40;;;;;;;8.30;7.60;;;20.50;99.90;;;;;;5072431;28;20371;-69
2022/08/18 04:02:06;;;;;;;8.33;7.50;;;20.60;99.90;;;;;;5070846;28;20495;-69
2022/08/18 04:04:32;;;;;;;7.97;7.10;;;20.60;99.90;;;;;;5071672;28;20478;-69
2022/08/18 04:07:03;;;;;;;8.82;7.72;;;20.70;99.90;;;;;;5071903;28;20458;-69
2022/08/18 04:09:29;;;;;;;8.43;7.53;;;20.70;99.90;;;;;;5072711;28;20390;-69
2022/08/18 04:12:01;;;;;;;8.82;7.90;;;20.70;99.90;;;;;;5072015;28;20384;-69
2022/08/18 04:14:29;;;;;;;9.17;8.27;;;20.80;99.90;;;;;;5071965;28;20475;-69
2022/08/18 04:16:56;;;;;;;8.02;7.40;;;20.70;99.90;;;;;;5069243;28;20408;-69
2022/08/18 04:19:22;;;;;;;8.90;8.00;;;20.80;99.90;;;;;;5069055;28;20459;-69
2022/08/18 04:21:51;;;;;;;8.67;7.87;;;20.80;99.90;;;;;;5067868;28;20387;-69
2022/08/18 04:24:17;;;;;;;8.10;7.40;;;20.80;99.90;;;;;;5068428;28;20383;-69
2022/08/18 04:26:45;;;;;;;8.45;7.65;;;20.80;99.90;;;;;;5068387;28;20386;-69
2022/08/18 04:29:12;;;;;;;7.90;7.20;;;20.90;99.90;;;;;;5069447;28;20388;-70
2022/08/18 04:31:38;;;;;;;8.00;7.27;;;20.90;99.90;;;;;;5070315;28;20411;-69
2022/08/18 04:34:05;;;;;;;8.40;7.60;;;20.90;99.90;;;;;;5072493;28;20387;-69
2022/08/18 04:36:33;;;;;;;8.85;7.95;;;20.90;99.90;;;;;;5072386;28;20412;-69
2022/08/18 04:38:59;;;;;;;7.55;6.85;;;20.90;99.90;;;;;;5075908;28;20384;-69
2022/08/18 04:41:26;;;;;;;8.30;7.50;;;20.90;99.90;;;;;;5077143;28;20383;-69
2022/08/18 04:43:57;;;;;;;10.90;8.15;;;20.90;99.90;;;;;;5075615;28;20444;-71
2022/08/18 04:46:24;;;;;;;7.95;6.80;;;20.80;99.90;;;;;;5075266;28;20402;-68
2022/08/18 04:48:49;;;;;;;7.32;6.72;;;20.80;99.90;;;;;;5072424;28;20661;-71
2022/08/18 04:51:17;;;;;;;7.70;6.90;;;20.90;99.90;;;;;;5074702;28;20490;-68
2022/08/18 04:53:44;;;;;;;8.00;7.23;;;21.00;99.90;;;;;;5075070;28;20790;-68
2022/08/18 04:56:32;;;;;;;7.90;7.10;;;21.00;99.90;;;;;;5074503;28;20414;-69
2022/08/18 04:59:05;;;;;;;7.80;7.10;;;21.00;99.90;;;;;;5073710;28;20427;-69
2022/08/18 05:01:36;;;;;;;8.13;7.32;;;21.00;99.90;;;;;;5075475;28;20391;-69
2022/08/18 05:04:02;;;;;;;8.00;7.15;;;21.00;99.90;;;;;;5076192;28;20383;-69
2022/08/18 05:06:28;;;;;;;7.57;6.88;;;21.00;99.90;;;;;;5075808;28;20383;-70
2022/08/18 05:09:01;;;;;;;9.00;8.10;;;21.00;99.90;;;;;;5074014;28;20384;-69
2022/08/18 05:11:28;;;;;;;9.73;7.60;;;21.00;99.90;;;;;;5073365;28;20835;-70
2022/08/18 05:13:57;;;;;;;7.95;7.15;;;21.00;99.90;;;;;;5073431;28;20391;-70
2022/08/18 05:16:24;;;;;;;8.52;7.50;;;21.00;99.90;;;;;;5072919;28;20411;-69
2022/08/18 05:18:52;;;;;;;7.88;7.10;;;21.00;99.90;;;;;;5072681;28;20372;-69
2022/08/18 05:21:18;;;;;;;8.75;7.80;;;21.00;99.90;;;;;;5066134;28;20395;-69
2022/08/18 05:23:46;;;;;;;8.80;7.90;;;21.00;99.90;;;;;;5065848;28;20795;-70
2022/08/18 05:26:13;;;;;;;9.57;8.13;;;21.10;99.90;;;;;;5065098;28;20384;-70
2022/08/18 05:28:41;;;;;;;9.23;8.32;;;21.10;99.90;;;;;;5066042;28;20566;-69
2022/08/18 05:31:14;;;;;;;10.18;8.43;;;21.10;99.90;;;;;;5064797;28;20411;-69
2022/08/18 05:33:40;;;;;;;8.00;7.22;;;21.00;99.90;;;;;;5062724;28;20442;-69
2022/08/18 05:36:23;;;;;;;7.25;6.55;;;21.00;99.90;;;;;;5061339;28;20498;-70
2022/08/18 05:39:18;;;;;;;8.63;7.40;;;21.10;99.90;;;;;;5063183;28;20498;-70
2022/08/18 05:41:59;;;;;;;8.63;7.30;;;21.10;99.90;;;;;;5058089;28;20475;-69
2022/08/18 05:44:27;;;;;;;14.40;9.30;;;21.20;99.90;;;;;;5062917;28;20447;-69
2022/08/18 05:47:07;;;;;;;7.28;6.57;;;21.10;99.90;;;;;;5060156;28;20400;-69
2022/08/18 05:49:34;;;;;;;8.98;7.95;;;21.10;99.90;;;;;;5058220;28;20392;-70
2022/08/18 05:52:05;;;;;;;11.65;8.98;;;21.10;99.90;;;;;;5057921;28;20384;-69
2022/08/18 05:57:40;;;;;;;13.70;10.43;;;20.90;99.90;;;;;;5059784;28;20968;-70
2022/08/18 06:00:09;;;;;;;12.38;11.07;;;20.90;99.90;;;;;;5056709;28;20806;-69
2022/08/18 06:02:56;;;;;;;10.73;9.63;;;20.80;99.90;;;;;;5057775;28;20667;-70
2022/08/18 06:05:32;;;;;;;10.82;9.70;;;20.80;99.90;;;;;;5059943;28;20380;-70
2022/08/18 06:08:01;;;;;;;11.15;10.10;;;20.80;99.90;;;;;;5056944;28;20388;-69
2022/08/18 06:10:27;;;;;;;11.90;10.75;;;20.80;99.90;;;;;;5055507;28;20692;-69
2022/08/18 06:12:56;;;;;;;10.07;9.07;;;20.90;99.90;;;;;;5056593;28;20491;-69
2022/08/18 06:15:35;;;;;;;11.20;10.10;;;20.90;99.90;;;;;;5058730;28;20403;-69
2022/08/18 06:18:19;;;;;;;15.57;12.48;;;21.00;99.90;;;;;;5058736;28;20407;-70
2022/08/18 06:20:51;;;;;;;16.70;12.50;;;21.00;99.90;;;;;;5056818;28;20376;-69
2022/08/18 06:23:35;;;;;;;12.90;11.68;;;20.90;99.90;;;;;;5058740;28;20710;-70
2022/08/18 06:26:17;;;;;;;14.60;12.67;;;20.90;99.90;;;;;;5059400;28;20381;-69
2022/08/18 06:28:57;;;;;;;13.70;12.30;;;20.80;99.90;;;;;;5066453;28;21030;-70
2022/08/18 06:31:52;;;;;;;18.00;12.77;;;20.70;99.90;;;;;;5070398;28;20675;-74
2022/08/18 06:34:31;;;;;;;13.27;12.00;;;20.70;99.90;;;;;;5071693;28;20964;-70
2022/08/18 06:37:08;;;;;;;14.57;12.45;;;20.70;99.90;;;;;;5068123;28;20419;-69
2022/08/18 06:39:42;;;;;;;13.43;11.77;;;20.70;99.90;;;;;;5066744;28;20375;-70
2022/08/18 06:42:08;;;;;;;15.90;13.23;;;20.70;99.90;;;;;;5063355;28;20387;-69
2022/08/18 06:44:43;;;;;;;14.65;12.85;;;20.70;99.90;;;;;;5061441;28;20380;-69
2022/08/18 06:47:14;;;;;;;12.80;11.48;;;20.70;99.90;;;;;;5058264;28;20396;-70
2022/08/18 06:50:07;;;;;;;14.50;13.02;;;20.70;99.90;;;;;;5048292;28;20669;-69
2022/08/18 06:52:34;;;;;;;14.48;13.07;;;20.70;99.90;;;;;;5044240;28;20408;-69
2022/08/18 06:55:07;;;;;;;15.20;13.68;;;20.70;99.90;;;;;;5043638;28;20730;-70
2022/08/18 06:57:36;;;;;;;20.55;15.25;;;20.70;99.90;;;;;;5045936;28;20495;-70
2022/08/18 07:00:23;;;;;;;13.85;12.55;;;20.70;99.90;;;;;;5047574;28;20390;-69
2022/08/18 07:02:57;;;;;;;17.20;13.87;;;20.70;99.90;;;;;;5050069;28;20387;-69
2022/08/18 07:05:29;;;;;;;17.23;15.47;;;20.80;99.90;;;;;;5054154;28;20371;-69
2022/08/18 07:08:30;;;;;;;24.60;22.02;;;20.90;99.90;;;;;;5054513;28;20667;-69
2022/08/18 07:11:10;;;;;;;27.55;24.42;;;20.70;99.90;;;;;;5056574;28;20434;-69
2022/08/18 07:13:40;;;;;;;30.50;26.95;;;20.60;99.90;;;;;;5057526;28;20453;-69
2022/08/18 07:16:21;;;;;;;33.60;28.58;;;20.70;99.90;;;;;;5058088;28;20678;-70
2022/08/18 07:18:47;;;;;;;32.30;28.83;;;20.60;99.90;;;;;;5057860;28;20725;-69
2022/08/18 07:21:33;;;;;;;34.92;29.08;;;20.60;99.90;;;;;;5091189;28;20534;-72
2022/08/18 07:24:04;;;;;;;32.80;29.15;;;20.60;99.90;;;;;;5056983;28;20411;-71
2022/08/18 07:26:50;;;;;;;37.90;30.43;;;20.70;99.90;;;;;;5058185;28;20383;-71
2022/08/18 07:29:15;;;;;;;39.25;31.17;;;20.70;99.90;;;;;;5055528;28;20388;-69
2022/08/18 07:31:51;;;;;;;40.55;31.63;;;20.60;99.90;;;;;;5056621;28;20422;-68
2022/08/18 07:34:35;;;;;;;42.27;32.97;;;20.50;99.90;;;;;;5055676;28;20692;-68
2022/08/18 07:37:26;;;;;;;43.20;33.65;;;20.40;99.90;;;;;;5054127;28;20594;-68
2022/08/18 07:40:00;;;;;;;42.83;33.05;;;20.20;99.90;;;;;;5059460;28;20383;-69
2022/08/18 07:42:44;;;;;;;43.60;31.20;;;20.20;99.90;;;;;;5059602;28;20669;-69
2022/08/18 07:45:18;;;;;;;33.78;28.27;;;20.20;99.90;;;;;;5059287;28;20396;-69
2022/08/18 07:48:06;;;;;;;33.25;27.70;;;20.20;99.90;;;;;;5058588;28;20456;-69
2022/08/18 07:50:58;;;;;;;34.83;27.00;;;20.30;99.90;;;;;;5059139;28;20795;-69
2022/08/18 07:53:47;;;;;;;30.85;26.67;;;20.40;99.90;;;;;;5064270;28;20391;-69
2022/08/18 07:56:24;;;;;;;29.42;25.58;;;20.40;99.90;;;;;;5056143;28;20613;-69
2022/08/18 07:58:54;;;;;;;31.58;26.95;;;20.50;99.90;;;;;;5060759;28;20676;-69
2022/08/18 08:01:42;;;;;;;29.95;26.75;;;20.50;99.90;;;;;;5060207;28;20815;-69
2022/08/18 08:04:26;;;;;;;31.33;27.05;;;20.50;99.90;;;;;;5060449;28;20633;-69
2022/08/18 08:07:18;;;;;;;33.25;27.75;;;20.50;99.90;;;;;;5057756;28;20560;-70
2022/08/18 08:10:22;;;;;;;34.25;27.52;;;20.60;99.90;;;;;;5055582;28;20380;-69
2022/08/18 08:13:05;;;;;;;40.42;31.63;;;20.50;99.90;;;;;;5064556;28;20379;-69
2022/08/18 08:15:41;;;;;;;39.17;30.67;;;20.40;99.90;;;;;;5064876;28;20698;-69
2022/08/18 08:18:40;;;;;;;44.17;32.27;;;20.40;99.90;;;;;;5063386;28;20755;-69
2022/08/18 08:21:19;;;;;;;44.95;32.85;;;20.40;99.90;;;;;;5063870;28;20372;-69
2022/08/18 08:23:50;;;;;;;51.55;35.08;;;20.40;99.90;;;;;;5064119;28;20628;-69
2022/08/18 08:26:25;;;;;;;49.05;33.80;;;20.50;99.90;;;;;;5060839;28;20380;-69
2022/08/18 08:29:30;;;;;;;51.58;34.95;;;20.50;99.90;;;;;;5058950;28;20372;-70
2022/08/18 08:32:04;;;;;;;49.22;34.42;;;20.50;99.90;;;;;;5057946;28;20406;-69
2022/08/18 08:34:55;;;;;;;49.10;35.33;;;20.50;99.90;;;;;;5064306;28;20482;-68
2022/08/18 08:37:48;;;;;;;46.50;32.83;;;20.50;99.90;;;;;;5064268;28;20812;-68
2022/08/18 08:40:23;;;;;;;40.80;29.83;;;20.60;99.90;;;;;;5066002;28;20387;-69
2022/08/18 08:42:54;;;;;;;36.22;28.25;;;20.60;99.90;;;;;;5065282;28;20388;-72
2022/08/18 08:45:34;;;;;;;33.95;27.33;;;20.70;99.90;;;;;;5064220;28;20498;-69
2022/08/18 08:48:17;;;;;;;39.85;31.10;;;20.80;99.90;;;;;;5066992;28;20630;-69
2022/08/18 08:51:00;;;;;;;33.40;26.40;;;20.70;99.90;;;;;;5064450;28;20388;-69
2022/08/18 08:53:32;;;;;;;33.65;26.60;;;20.70;99.90;;;;;;5065335;28;20392;-69
2022/08/18 08:56:12;;;;;;;29.65;24.02;;;20.60;99.90;;;;;;5067692;28;20383;-69
2022/08/18 08:59:09;;;;;;;30.15;23.95;;;20.60;99.90;;;;;;5067361;28;20384;-69
2022/08/18 09:01:59;;;;;;;26.88;21.70;;;20.80;99.90;;;;;;5064612;28;20384;-70
2022/08/18 09:04:53;;;;;;;31.27;22.52;;;20.90;99.90;;;;;;5066199;28;20387;-69
2022/08/18 09:07:38;;;;;;;25.38;21.50;;;21.00;99.90;;;;;;5064398;28;20656;-69
2022/08/18 09:10:27;;;;;;;24.08;20.42;;;21.10;99.90;;;;;;5065785;28;20493;-69
2022/08/18 09:13:14;;;;;;;25.80;21.67;;;21.20;99.90;;;;;;5065514;28;20376;-69
2022/08/18 09:15:59;;;;;;;24.00;19.83;;;21.20;99.90;;;;;;5065607;28;20391;-69
2022/08/18 09:18:43;;;;;;;23.33;20.02;;;21.30;99.90;;;;;;5066672;28;20487;-69
2022/08/18 09:21:34;;;;;;;29.02;23.35;;;21.40;99.90;;;;;;5065072;28;20399;-69
2022/08/18 09:24:15;;;;;;;23.25;19.85;;;21.50;99.90;;;;;;5063752;28;20387;-69
2022/08/18 09:26:48;;;;;;;27.33;21.42;;;21.50;99.90;;;;;;5066425;28;20474;-70
2022/08/18 09:29:48;;;;;;;25.90;22.08;;;21.60;99.90;;;;;;5066120;28;20376;-69
2022/08/18 09:32:21;;;;;;;27.55;23.20;;;21.70;99.90;;;;;;5093998;28;20648;-70
2022/08/18 09:35:12;;;;;;;29.17;24.33;;;21.70;99.90;;;;;;5058427;28;20384;-70
2022/08/18 09:37:43;;;;;;;24.67;21.23;;;21.70;99.90;;;;;;5058940;28;20407;-69
2022/08/18 09:43:12;;;;;;;25.95;21.42;;;21.80;99.90;;;;;;5063072;28;20636;-69
2022/08/18 09:45:58;;;;;;;26.10;23.33;;;21.90;99.90;;;;;;5059545;28;20498;-70
2022/08/18 09:48:28;;;;;;;30.03;25.33;;;21.80;99.90;;;;;;5056446;28;20413;-69
2022/08/18 09:51:19;;;;;;;29.50;22.85;;;21.80;99.90;;;;;;5057282;28;20466;-69
2022/08/18 09:53:45;;;;;;;30.07;24.37;;;21.80;99.90;;;;;;5056599;28;20778;-70
2022/08/18 09:56:13;;;;;;;22.23;18.80;;;21.80;99.90;;;;;;5056769;28;20702;-68
2022/08/18 09:58:54;;;;;;;23.45;19.88;;;22.00;99.90;;;;;;5055981;28;20380;-69
2022/08/18 10:01:29;;;;;;;23.05;20.20;;;22.10;99.90;;;;;;5056817;28;20419;-69
2022/08/18 10:04:13;;;;;;;26.00;23.20;;;22.10;99.90;;;;;;5060559;28;20619;-69
2022/08/18 10:06:43;;;;;;;28.77;25.67;;;22.20;99.90;;;;;;5063480;28;20462;-61
2022/08/18 10:09:37;;;;;;;28.33;25.02;;;22.10;99.90;;;;;;5061662;28;20680;-63
2022/08/18 10:12:05;;;;;;;25.63;22.50;;;22.10;99.90;;;;;;5062243;28;20380;-63
2022/08/18 10:15:01;;;;;;;23.45;20.90;;;22.30;99.90;;;;;;5062903;28;20511;-63
2022/08/18 10:17:39;;;;;;;27.85;24.95;;;22.40;99.90;;;;;;5059626;28;20492;-62
2022/08/18 10:20:33;;;;;;;28.65;24.90;;;22.30;99.90;;;;;;5055765;28;20625;-63
2022/08/18 10:22:59;;;;;;;24.52;21.40;;;22.30;99.90;;;;;;5055854;28;20472;-63
2022/08/18 10:25:45;;;;;;;26.40;23.58;;;22.30;99.90;;;;;;5056252;28;20387;-63
2022/08/18 10:29:03;;;;;;;28.35;24.73;;;22.40;99.90;;;;;;5056295;28;21036;-62
2022/08/18 10:31:31;;;;;;;25.15;22.45;;;22.40;99.90;;;;;;5050254;28;20403;-62
2022/08/18 10:34:12;;;;;;;25.85;23.33;;;22.40;99.90;;;;;;5057778;28;20388;-62
2022/08/18 10:36:50;;;;;;;23.95;21.50;;;22.50;99.90;;;;;;5057263;28;20534;-62
2022/08/18 10:39:45;;;;;;;21.80;19.55;;;22.70;99.90;;;;;;5058496;28;20379;-63
2022/08/18 10:42:27;;;;;;;26.83;24.05;;;22.70;99.90;;;;;;5061223;28;20459;-62
2022/08/18 10:45:04;;;;;;;27.52;24.63;;;22.90;99.90;;;;;;5058403;28;20380;-62
2022/08/18 10:47:30;;;;;;;22.27;19.98;;;22.80;99.90;;;;;;5057130;28;20375;-63
2022/08/18 10:49:57;;;;;;;24.25;21.65;;;22.90;99.90;;;;;;5058131;28;20388;-62
2022/08/18 10:52:35;;;;;;;23.77;19.92;;;23.10;99.90;;;;;;5055018;28;20595;-62
2022/08/18 10:55:15;;;;;;;26.45;23.67;;;23.20;99.90;;;;;;5061119;28;20395;-63
2022/08/18 10:58:23;;;;;;;27.10;24.00;;;23.20;99.90;;;;;;5062174;28;20468;-62
2022/08/18 11:01:25;;;;;;;24.40;21.80;;;23.00;99.90;;;;;;5004287;28;20403;-63
2022/08/18 11:04:05;;;;;;;24.33;21.80;;;23.10;99.90;;;;;;5060153;28;20387;-62
2022/08/18 11:06:40;;;;;;;24.90;21.88;;;23.10;99.90;;;;;;5062103;28;20379;-62
2022/08/18 11:09:07;;;;;;;24.53;20.50;;;23.00;99.90;;;;;;5060152;28;20384;-62
2022/08/18 11:11:43;;;;;;;20.57;18.37;;;23.10;99.90;;;;;;5060460;28;20798;-63
2022/08/18 11:14:22;;;;;;;25.17;20.83;;;23.10;99.90;;;;;;5061693;28;20395;-62
2022/08/18 11:17:13;;;;;;;20.98;18.02;;;23.30;99.90;;;;;;5057954;28;20419;-62
2022/08/18 11:19:41;;;;;;;22.38;19.98;;;23.50;99.90;;;;;;5055886;28;20723;-62
2022/08/18 11:22:28;;;;;;;16.90;15.30;;;23.70;99.90;;;;;;5057040;28;20762;-62
2022/08/18 11:24:53;;;;;;;20.65;18.50;;;23.90;99.90;;;;;;5058298;28;20462;-62
2022/08/18 11:27:20;;;;;;;22.33;20.08;;;24.10;99.90;;;;;;5057918;28;20398;-68
2022/08/18 11:29:46;;;;;;;20.52;18.35;;;24.20;99.90;;;;;;5059035;28;20384;-69
2022/08/18 11:32:23;;;;;;;21.40;19.38;;;24.30;99.90;;;;;;5059304;28;20450;-69
2022/08/18 11:35:09;;;;;;;19.33;17.48;;;24.40;99.90;;;;;;5057955;28;20376;-68
2022/08/18 11:37:43;;;;;;;18.35;16.55;;;24.40;99.90;;;;;;5060276;28;21096;-69
2022/08/18 11:40:30;;;;;;;15.77;14.27;;;24.50;99.90;;;;;;5062445;28;21071;-68
2022/08/18 11:43:36;;;;;;;20.20;18.30;;;24.50;99.90;;;;;;5060825;28;20391;-69
2022/08/18 11:46:14;;;;;;;20.13;18.13;;;24.40;99.90;;;;;;5021755;28;20393;-68
2022/08/18 11:48:39;;;;;;;17.50;15.73;;;24.30;99.90;;;;;;5058241;28;20927;-68
2022/08/18 11:51:27;;;;;;;17.73;15.93;;;24.20;99.90;;;;;;5057582;28;20423;-69
2022/08/18 11:54:01;;;;;;;16.92;15.15;;;24.40;99.90;;;;;;5058762;28;20399;-69
2022/08/18 11:56:33;;;;;;;14.18;12.80;;;24.50;99.90;;;;;;5061336;28;20385;-69
2022/08/18 11:59:05;;;;;;;15.33;13.83;;;24.50;99.90;;;;;;5063036;28;20387;-70
2022/08/18 12:01:47;;;;;;;14.80;13.30;;;24.50;99.90;;;;;;5062226;28;20391;-70
2022/08/18 12:04:13;;;;;;;13.93;12.45;;;24.50;99.90;;;;;;5061823;28;20416;-70
2022/08/18 12:06:52;;;;;;;13.57;11.53;;;24.50;99.90;;;;;;5061976;28;20763;-70
2022/08/18 12:09:31;;;;;;;16.10;14.50;;;24.60;99.90;;;;;;5059894;28;21106;-70
2022/08/18 12:12:26;;;;;;;14.38;12.98;;;24.80;99.90;;;;;;5055389;28;20452;-69
2022/08/18 12:14:57;;;;;;;15.00;13.10;;;24.90;99.90;;;;;;5059495;28;20391;-69
2022/08/18 12:17:25;;;;;;;13.20;12.00;;;25.20;99.90;;;;;;5060071;28;20848;-69
2022/08/18 12:19:51;;;;;;;11.27;10.15;;;25.30;99.90;;;;;;5060572;28;20383;-69
2022/08/18 12:22:22;;;;;;;14.15;12.05;;;25.60;99.90;;;;;;5062663;28;20882;-69
2022/08/18 12:24:48;;;;;;;10.98;9.02;;;25.70;99.90;;;;;;5064267;28;20791;-70
2022/08/18 12:27:17;;;;;;;11.33;10.23;;;25.90;99.90;;;;;;5062792;28;20383;-70
2022/08/18 12:29:43;;;;;;;10.43;9.40;;;26.10;99.90;;;;;;5053884;28;20693;-70
2022/08/18 12:32:11;;;;;;;10.40;9.30;;;26.20;99.90;;;;;;5053358;28;20419;-70
2022/08/18 12:34:37;;;;;;;12.00;10.80;;;26.50;99.90;;;;;;5054050;28;20591;-70
2022/08/18 12:37:04;;;;;;;13.93;10.70;;;26.60;99.90;;;;;;5052791;28;20805;-70
2022/08/18 12:39:30;;;;;;;10.07;9.05;;;26.50;99.90;;;;;;5055428;28;20834;-70
2022/08/18 12:41:56;;;;;;;11.55;10.05;;;26.70;99.90;;;;;;5053719;28;20387;-70
2022/08/18 12:44:22;;;;;;;10.82;9.73;;;26.80;99.90;;;;;;5054188;28;20806;-68
2022/08/18 12:46:48;;;;;;;10.23;8.85;;;27.10;99.90;;;;;;5055064;28;20479;-71
2022/08/18 12:49:18;;;;;;;10.13;9.02;;;27.40;99.90;;;;;;5053570;28;20396;-71
2022/08/18 12:51:45;;;;;;;9.32;8.27;;;27.50;99.90;;;;;;5052347;28;20403;-71
2022/08/18 12:54:11;;;;;;;12.25;9.20;;;27.60;99.90;;;;;;5054214;28;20376;-71
2022/08/18 12:56:40;;;;;;;10.77;9.63;;;27.80;99.90;;;;;;5053411;28;21037;-71
2022/08/18 12:59:08;;;;;;;9.25;8.32;;;27.90;99.90;;;;;;5056206;28;20929;-71
2022/08/18 13:01:36;;;;;;;11.03;9.00;;;28.00;99.90;;;;;;5061645;28;20402;-70
2022/08/18 13:04:02;;;;;;;11.38;8.80;;;27.60;99.90;;;;;;5060528;28;20994;-70
2022/08/18 13:06:29;;;;;;;10.40;9.40;;;27.30;99.90;;;;;;5062008;28;20372;-70
2022/08/18 13:08:55;;;;;;;8.30;7.22;;;26.90;99.90;;;;;;5057681;28;20639;-70
2022/08/18 13:11:22;;;;;;;10.00;8.30;;;27.10;99.90;;;;;;5057895;28;20390;-70
2022/08/18 13:13:49;;;;;;;10.98;9.70;;;27.50;99.90;;;;;;5057127;28;21014;-69
2022/08/18 13:16:15;;;;;;;9.93;8.30;;;27.60;99.90;;;;;;5056899;28;20398;-70
2022/08/18 13:18:41;;;;;;;9.25;8.43;;;27.60;99.90;;;;;;5058922;28;20500;-70
2022/08/18 13:21:09;;;;;;;9.82;8.13;;;28.00;99.90;;;;;;5058577;28;20663;-70
2022/08/18 13:23:35;;;;;;;9.02;7.97;;;28.30;99.90;;;;;;5061301;28;20814;-70